Time;durP1;ratioP1;P1;durP2;ratioP2;P2;SDS_P1;SDS_P2;PMS_P1;PMS_P2;Temp;Humidity;BMP_temperature;BMP_pressure;BME280_temperature;BME280_humidity;BME280_pressure;Samples;Min_cycle;Max_cycle;Signal;HPM_P1;HPM_P2
2022/08/24 00:00:53;;;;;;;8.48;4.95;;;21.50;99.90;;;;;;4997624;28;20252;-81
2022/08/24 00:03:19;;;;;;;8.02;4.90;;;21.50;99.90;;;;;;4996334;28;20175;-81
2022/08/24 00:05:45;;;;;;;9.57;5.30;;;21.20;99.90;;;;;;4996678;28;20289;-81
2022/08/24 00:08:10;;;;;;;6.13;4.82;;;21.00;99.90;;;;;;5014383;28;20245;-82
2022/08/24 00:10:36;;;;;;;6.55;5.05;;;21.00;99.90;;;;;;4996463;28;20182;-80
2022/08/24 00:13:02;;;;;;;15.65;5.35;;;21.10;99.90;;;;;;4996284;28;20171;-81
2022/08/24 00:15:28;;;;;;;7.97;5.40;;;21.30;99.90;;;;;;4996916;28;20685;-81
2022/08/24 00:17:53;;;;;;;18.23;5.38;;;21.00;99.90;;;;;;4996530;28;20713;-81
2022/08/24 00:20:19;;;;;;;5.72;4.60;;;21.10;99.90;;;;;;5014393;28;20606;-81
2022/08/24 00:22:45;;;;;;;9.23;5.22;;;21.50;99.90;;;;;;4996065;28;20617;-80
2022/08/24 00:25:12;;;;;;;10.65;5.10;;;21.30;99.90;;;;;;4995899;28;20243;-83
2022/08/24 00:27:40;;;;;;;11.10;5.88;;;20.90;99.90;;;;;;4996886;28;20189;-81
2022/08/24 00:30:09;;;;;;;9.60;5.20;;;20.90;99.90;;;;;;4998623;28;20196;-81
2022/08/24 00:32:36;;;;;;;10.70;5.57;;;21.00;99.90;;;;;;4997408;28;20178;-82
2022/08/24 00:35:04;;;;;;;7.82;5.32;;;21.10;99.90;;;;;;4997832;28;20704;-81
2022/08/24 00:37:30;;;;;;;8.60;5.20;;;21.00;99.90;;;;;;4997285;28;20576;-82
2022/08/24 00:39:56;;;;;;;11.68;5.80;;;21.10;99.90;;;;;;4999631;28;20276;-81
2022/08/24 00:42:22;;;;;;;11.18;5.88;;;21.00;99.90;;;;;;4999736;28;20640;-79
2022/08/24 00:44:48;;;;;;;8.18;5.80;;;21.20;99.90;;;;;;4999466;28;20198;-82
2022/08/24 00:47:27;;;;;;;9.48;5.90;;;20.80;99.90;;;;;;4999729;28;20198;-82
2022/08/24 00:49:59;;;;;;;10.18;6.10;;;20.80;99.90;;;;;;4999135;28;20173;-82
2022/08/24 00:52:33;;;;;;;10.18;5.90;;;20.90;99.90;;;;;;4999832;28;20194;-82
2022/08/24 00:55:16;;;;;;;7.90;5.90;;;21.00;99.90;;;;;;4997433;28;20202;-81
2022/08/24 00:57:45;;;;;;;9.43;5.97;;;20.90;99.90;;;;;;4998114;28;20655;-82
2022/08/24 01:00:25;;;;;;;12.90;6.35;;;20.80;99.90;;;;;;5013617;28;20171;-83
2022/08/24 01:02:54;;;;;;;9.35;6.65;;;20.70;99.90;;;;;;4997604;28;20647;-80
2022/08/24 01:05:20;;;;;;;13.02;5.80;;;20.80;99.90;;;;;;4997759;28;20170;-82
2022/08/24 01:07:49;;;;;;;10.80;5.95;;;20.70;99.90;;;;;;4997487;28;20517;-83
2022/08/24 01:10:19;;;;;;;8.60;6.07;;;20.60;99.90;;;;;;4996134;28;20171;-81
2022/08/24 01:12:49;;;;;;;7.50;6.10;;;20.60;99.90;;;;;;4995103;28;20167;-80
2022/08/24 01:15:16;;;;;;;10.07;5.40;;;20.60;99.90;;;;;;4996785;28;20185;-81
2022/08/24 01:20:27;;;;;;;9.77;5.45;;;20.80;99.90;;;;;;5013420;28;20217;-80
2022/08/24 01:23:04;;;;;;;8.90;6.28;;;20.80;99.90;;;;;;4997335;28;20174;-82
2022/08/24 01:25:31;;;;;;;13.32;6.07;;;20.80;99.90;;;;;;4994849;28;20573;-84
2022/08/24 01:28:03;;;;;;;10.55;5.88;;;20.50;99.90;;;;;;4996816;28;20176;-81
2022/08/24 01:30:28;;;;;;;11.00;5.63;;;20.50;99.90;;;;;;5000334;28;20167;-82
2022/08/24 01:33:02;;;;;;;9.88;5.50;;;20.70;99.90;;;;;;4996707;28;20257;-82
2022/08/24 01:35:28;;;;;;;9.77;5.72;;;20.60;99.90;;;;;;4997464;28;20174;-81
2022/08/24 01:37:56;;;;;;;8.25;5.25;;;20.60;99.90;;;;;;4997174;28;20261;-81
2022/08/24 01:40:35;;;;;;;10.23;6.35;;;20.60;99.90;;;;;;4996704;28;20214;-81
2022/08/24 01:43:04;;;;;;;9.00;5.82;;;20.60;99.90;;;;;;4995097;28;20647;-80
2022/08/24 01:45:30;;;;;;;8.10;5.97;;;20.50;99.90;;;;;;4996524;28;20589;-80
2022/08/24 01:47:57;;;;;;;13.10;5.97;;;20.70;99.90;;;;;;4996481;28;20167;-81
2022/08/24 01:50:23;;;;;;;10.10;5.43;;;20.60;99.90;;;;;;4996085;28;20166;-82
2022/08/24 01:52:51;;;;;;;11.60;5.70;;;20.80;99.90;;;;;;4996093;28;20206;-82
2022/08/24 01:55:17;;;;;;;8.32;5.70;;;20.60;99.90;;;;;;4994041;28;20171;-81
2022/08/24 01:57:43;;;;;;;9.80;5.80;;;20.50;99.90;;;;;;4994483;28;20171;-82
2022/08/24 02:00:15;;;;;;;11.68;5.75;;;20.60;99.90;;;;;;4994260;28;20254;-83
2022/08/24 02:02:42;;;;;;;10.57;5.30;;;20.60;99.90;;;;;;4993454;28;20163;-82
2022/08/24 02:05:10;;;;;;;9.75;5.93;;;20.50;99.90;;;;;;4993979;28;20167;-82
2022/08/24 02:07:35;;;;;;;7.88;5.32;;;20.70;99.90;;;;;;4993690;28;20179;-81
2022/08/24 02:10:01;;;;;;;8.95;5.47;;;20.60;99.90;;;;;;4993733;28;20229;-82
2022/08/24 02:12:27;;;;;;;7.93;5.78;;;20.60;99.90;;;;;;4991610;28;20171;-81
2022/08/24 02:14:52;;;;;;;7.88;5.25;;;20.60;99.90;;;;;;4993137;28;20625;-81
2022/08/24 02:17:19;;;;;;;15.93;6.30;;;20.70;99.90;;;;;;4993836;28;20190;-82
2022/08/24 02:19:45;;;;;;;9.93;5.90;;;20.30;99.90;;;;;;4993884;28;20213;-82
2022/08/24 02:22:10;;;;;;;10.02;5.70;;;20.30;99.90;;;;;;4993531;28;20171;-82
2022/08/24 02:24:36;;;;;;;7.10;5.90;;;20.50;99.90;;;;;;4993855;28;22107;-82
2022/08/24 02:27:04;;;;;;;9.85;5.57;;;20.60;99.90;;;;;;4993616;28;20274;-81
2022/08/24 02:29:30;;;;;;;7.72;5.20;;;20.50;99.90;;;;;;4993819;28;20229;-81
2022/08/24 02:31:56;;;;;;;6.75;5.70;;;20.40;99.90;;;;;;4993396;28;20178;-82
2022/08/24 02:34:22;;;;;;;12.07;5.90;;;20.40;99.90;;;;;;4993448;28;20190;-82
2022/08/24 02:36:48;;;;;;;10.00;5.70;;;20.30;99.90;;;;;;4994620;28;20205;-82
2022/08/24 02:39:14;;;;;;;8.25;5.55;;;20.20;99.90;;;;;;4995272;28;20257;-81
2022/08/24 02:41:39;;;;;;;11.10;5.43;;;20.20;99.90;;;;;;4994708;28;20190;-82
2022/08/24 02:44:05;;;;;;;10.57;5.70;;;20.20;99.90;;;;;;4994239;28;20606;-82
2022/08/24 02:46:31;;;;;;;7.78;5.43;;;20.30;99.90;;;;;;4994526;28;20206;-83
2022/08/24 02:48:58;;;;;;;8.63;5.47;;;20.30;99.90;;;;;;4992528;28;20175;-82
2022/08/24 02:51:27;;;;;;;7.57;5.07;;;20.30;99.90;;;;;;4994621;28;20647;-82
2022/08/24 02:53:53;;;;;;;9.67;5.83;;;20.30;99.90;;;;;;4994234;28;20741;-82
2022/08/24 02:56:20;;;;;;;9.30;5.53;;;20.30;99.90;;;;;;4995660;28;20281;-82
2022/08/24 02:58:46;;;;;;;9.83;5.13;;;20.40;99.90;;;;;;4997321;28;20270;-82
2022/08/24 03:01:13;;;;;;;7.17;5.03;;;20.20;99.90;;;;;;4997075;28;20233;-82
2022/08/24 03:03:39;;;;;;;7.57;5.03;;;20.10;99.90;;;;;;4997073;28;20290;-84
2022/08/24 03:06:07;;;;;;;10.03;5.83;;;20.00;99.90;;;;;;4996936;28;20709;-83
2022/08/24 03:08:33;;;;;;;9.37;5.70;;;19.90;99.90;;;;;;4997165;28;20167;-82
2022/08/24 03:10:59;;;;;;;9.43;5.20;;;19.80;99.90;;;;;;4996741;28;20254;-82
2022/08/24 03:13:26;;;;;;;7.73;5.40;;;19.80;99.90;;;;;;4997466;28;20580;-81
2022/08/24 03:15:54;;;;;;;9.63;5.70;;;19.90;99.90;;;;;;5000669;28;20289;-83
2022/08/24 03:18:20;;;;;;;9.27;5.40;;;19.80;99.90;;;;;;4999755;28;20171;-81
2022/08/24 03:20:46;;;;;;;9.77;5.63;;;19.80;99.90;;;;;;5000114;28;20546;-83
2022/08/24 03:23:11;;;;;;;7.50;5.93;;;19.90;99.90;;;;;;4999806;28;20185;-83
2022/08/24 03:25:37;;;;;;;9.47;5.57;;;19.80;99.90;;;;;;4999408;28;20747;-79
2022/08/24 03:28:03;;;;;;;13.80;6.13;;;19.90;99.90;;;;;;4999633;28;20171;-82
2022/08/24 03:30:29;;;;;;;12.17;6.27;;;19.80;99.90;;;;;;4999800;28;20202;-82
2022/08/24 03:32:54;;;;;;;7.97;5.77;;;19.70;99.90;;;;;;4999934;28;20194;-81
2022/08/24 03:35:21;;;;;;;6.73;5.90;;;19.80;99.90;;;;;;5000017;28;20229;-83
2022/08/24 03:37:50;;;;;;;12.50;6.80;;;19.60;99.90;;;;;;4999023;28;20182;-81
2022/08/24 03:40:17;;;;;;;9.43;5.93;;;19.50;99.90;;;;;;4997751;28;20177;-82
2022/08/24 03:42:43;;;;;;;7.63;6.20;;;19.50;99.90;;;;;;4998886;28;20207;-82
2022/08/24 03:45:09;;;;;;;8.17;5.73;;;19.30;99.90;;;;;;4999418;28;20617;-82
2022/08/24 03:47:35;;;;;;;11.17;6.23;;;19.40;99.90;;;;;;4999791;28;20265;-83
2022/08/24 03:50:01;;;;;;;7.90;6.20;;;19.20;99.90;;;;;;4998575;28;20257;-82
2022/08/24 03:52:27;;;;;;;11.10;6.37;;;19.20;99.90;;;;;;4998566;28;20185;-81
2022/08/24 03:54:52;;;;;;;7.90;5.70;;;19.00;99.90;;;;;;4999640;28;20183;-82
2022/08/24 03:57:18;;;;;;;9.60;6.70;;;19.10;99.90;;;;;;4997505;28;20190;-81
2022/08/24 03:59:44;;;;;;;8.77;6.17;;;19.20;99.90;;;;;;5015202;28;20179;-81
2022/08/24 04:02:09;;;;;;;10.77;6.47;;;19.30;99.90;;;;;;4997931;28;20602;-82
2022/08/24 04:04:35;;;;;;;13.50;7.10;;;19.10;99.90;;;;;;4997633;28;20170;-82
2022/08/24 04:07:01;;;;;;;13.13;7.33;;;19.10;99.90;;;;;;4997226;28;20206;-81
2022/08/24 04:09:26;;;;;;;11.53;6.67;;;18.80;99.90;;;;;;4997792;28;20190;-81
2022/08/24 04:11:52;;;;;;;13.60;7.37;;;18.60;99.90;;;;;;4997460;28;20174;-82
2022/08/24 04:14:21;;;;;;;10.10;7.00;;;18.80;99.90;;;;;;4997330;28;20205;-82
2022/08/24 04:16:46;;;;;;;9.47;6.77;;;18.90;99.90;;;;;;5013706;28;20198;-81
2022/08/24 04:19:13;;;;;;;13.77;7.43;;;19.10;99.90;;;;;;4997732;28;20705;-83
2022/08/24 04:21:39;;;;;;;13.97;7.67;;;18.70;99.90;;;;;;4997185;28;20528;-82
2022/08/24 04:24:07;;;;;;;12.13;7.17;;;18.90;99.90;;;;;;4996314;28;20182;-82
2022/08/24 04:26:34;;;;;;;28.00;7.60;;;18.70;99.90;;;;;;4996233;28;20210;-80
2022/08/24 04:29:01;;;;;;;34.90;7.90;;;18.70;99.90;;;;;;4996814;28;20269;-81
2022/08/24 04:31:29;;;;;;;37.87;8.13;;;18.70;99.90;;;;;;4997574;28;20177;-82
2022/08/24 04:33:56;;;;;;;30.13;8.40;;;18.80;99.90;;;;;;4997170;28;20182;-82
2022/08/24 04:36:22;;;;;;;17.33;7.10;;;18.70;99.90;;;;;;4997835;28;20262;-81
2022/08/24 04:38:49;;;;;;;13.53;6.77;;;18.90;99.90;;;;;;4996670;28;20293;-81
2022/08/24 04:41:19;;;;;;;11.60;6.23;;;18.60;99.90;;;;;;4994994;28;20182;-82
2022/08/24 04:43:45;;;;;;;14.77;6.40;;;18.40;99.90;;;;;;4995349;28;20205;-81
2022/08/24 04:46:14;;;;;;;11.37;6.37;;;18.70;99.90;;;;;;4996924;28;20202;-83
2022/08/24 04:48:41;;;;;;;13.03;6.40;;;18.70;99.90;;;;;;4998560;28;20178;-81
2022/08/24 04:51:10;;;;;;;13.07;6.00;;;18.50;99.90;;;;;;4996606;28;20175;-82
2022/08/24 04:53:36;;;;;;;11.57;6.57;;;18.70;99.90;;;;;;4996584;28;20171;-82
2022/08/24 04:56:03;;;;;;;11.13;6.57;;;18.60;99.90;;;;;;4997648;28;20255;-82
2022/08/24 04:58:29;;;;;;;19.53;6.97;;;18.80;99.90;;;;;;4996082;28;20186;-81
2022/08/24 05:00:56;;;;;;;19.33;6.10;;;18.70;99.90;;;;;;4997924;28;20182;-82
2022/08/24 05:03:22;;;;;;;14.13;6.67;;;18.70;99.90;;;;;;4997666;28;20183;-82
2022/08/24 05:05:50;;;;;;;19.17;6.70;;;18.70;99.90;;;;;;4997440;28;20214;-82
2022/08/24 05:08:18;;;;;;;13.13;6.13;;;18.70;99.90;;;;;;4996336;28;20167;-81
2022/08/24 05:10:46;;;;;;;11.63;6.33;;;18.70;99.90;;;;;;4996119;28;20178;-83
2022/08/24 05:13:12;;;;;;;13.53;6.37;;;18.80;99.90;;;;;;4998241;28;20203;-81
2022/08/24 05:15:43;;;;;;;14.93;7.73;;;19.00;99.90;;;;;;4996817;28;20245;-82
2022/08/24 05:18:09;;;;;;;14.17;6.20;;;18.90;99.90;;;;;;4997722;28;20189;-81
2022/08/24 05:20:38;;;;;;;12.23;6.33;;;18.80;99.90;;;;;;4997367;28;20182;-81
2022/08/24 05:23:04;;;;;;;11.10;6.47;;;19.10;99.90;;;;;;4997467;28;20206;-82
2022/08/24 05:25:29;;;;;;;11.40;6.87;;;19.20;99.90;;;;;;4997153;28;20706;-81
2022/08/24 05:27:55;;;;;;;8.47;5.87;;;19.10;99.90;;;;;;4997643;28;20181;-82
2022/08/24 05:30:20;;;;;;;11.90;6.03;;;19.10;99.90;;;;;;4997361;28;20163;-82
2022/08/24 05:32:48;;;;;;;10.33;6.07;;;19.30;99.90;;;;;;4997856;28;20577;-82
2022/08/24 05:35:13;;;;;;;16.20;6.67;;;19.40;99.90;;;;;;4997293;28;20170;-82
2022/08/24 05:37:40;;;;;;;9.47;6.00;;;19.60;99.90;;;;;;4997424;28;20701;-82
2022/08/24 05:40:09;;;;;;;15.83;6.10;;;19.60;99.90;;;;;;4997429;28;20237;-82
2022/08/24 05:42:35;;;;;;;9.70;5.80;;;19.60;99.90;;;;;;4996976;28;20238;-81
2022/08/24 05:45:01;;;;;;;14.43;5.87;;;19.60;99.90;;;;;;4997353;28;20170;-82
2022/08/24 05:47:27;;;;;;;17.77;6.30;;;19.80;99.90;;;;;;4997080;28;20570;-81
2022/08/24 05:50:07;;;;;;;16.43;6.33;;;19.80;99.90;;;;;;4998275;28;20167;-81
2022/08/24 05:52:34;;;;;;;14.03;6.40;;;19.90;99.90;;;;;;4996811;28;20213;-82
2022/08/24 05:55:00;;;;;;;12.70;7.22;;;19.50;99.90;;;;;;4995464;28;20167;-80
2022/08/24 05:57:31;;;;;;;22.75;6.13;;;19.70;99.90;;;;;;4995340;28;20415;-83
2022/08/24 05:59:57;;;;;;;9.70;5.63;;;19.90;99.90;;;;;;4995216;28;20182;-82
2022/08/24 06:02:22;;;;;;;10.80;6.30;;;20.20;99.90;;;;;;5012340;28;21844;-81
2022/08/24 06:04:48;;;;;;;11.03;5.63;;;20.30;99.90;;;;;;4994573;28;20182;-79
2022/08/24 06:07:14;;;;;;;16.30;5.93;;;20.50;99.90;;;;;;4995174;28;20205;-82
2022/08/24 06:09:40;;;;;;;14.40;5.68;;;20.70;99.90;;;;;;4995252;28;20171;-82
2022/08/24 06:12:07;;;;;;;13.18;5.90;;;21.20;99.90;;;;;;4994808;28;20547;-82
2022/08/24 06:14:34;;;;;;;13.73;5.43;;;21.50;99.90;;;;;;4994688;28;20191;-82
2022/08/24 06:17:02;;;;;;;15.95;5.60;;;21.60;99.90;;;;;;4992907;28;20222;-83
2022/08/24 06:19:27;;;;;;;9.90;4.53;;;21.50;99.90;;;;;;4994388;28;20221;-83
2022/08/24 06:21:54;;;;;;;8.02;4.53;;;22.30;99.90;;;;;;5011714;28;20771;-83
2022/08/24 06:27:22;;;;;;;10.25;5.20;;;23.00;99.90;;;;;;5010316;28;20214;-81
2022/08/24 06:29:58;;;;;;;5.78;4.75;;;23.30;99.90;;;;;;4994381;28;20221;-83
2022/08/24 06:32:24;;;;;;;15.55;5.40;;;23.30;99.90;;;;;;4993752;28;20174;-81
2022/08/24 06:34:53;;;;;;;6.82;4.85;;;22.70;99.90;;;;;;4993873;28;20709;-82
2022/08/24 06:37:19;;;;;;;11.45;5.20;;;23.30;99.90;;;;;;4994064;28;20190;-81
2022/08/24 06:39:45;;;;;;;10.88;4.78;;;23.30;99.90;;;;;;4995184;28;20270;-82
2022/08/24 06:42:10;;;;;;;8.15;4.93;;;23.90;99.90;;;;;;4995040;28;20262;-82
2022/08/24 06:44:36;;;;;;;9.98;5.15;;;24.30;99.90;;;;;;4995483;28;20167;-81
2022/08/24 06:47:02;;;;;;;11.57;5.57;;;24.60;99.30;;;;;;4995474;28;20614;-82
2022/08/24 06:49:28;;;;;;;13.57;5.57;;;24.60;99.40;;;;;;5016592;28;20677;-83
2022/08/24 06:51:53;;;;;;;12.65;5.25;;;24.60;99.90;;;;;;5017110;28;20166;-82
2022/08/24 06:54:22;;;;;;;12.55;5.20;;;25.20;98.80;;;;;;5000111;28;20575;-82
2022/08/24 06:56:48;;;;;;;10.00;4.90;;;25.20;98.90;;;;;;5000935;28;20285;-80
2022/08/24 06:59:14;;;;;;;12.13;5.60;;;25.50;97.60;;;;;;5000398;28;20183;-83
2022/08/24 07:01:39;;;;;;;10.15;4.72;;;26.10;97.30;;;;;;5000768;28;20208;-83
2022/08/24 07:04:05;;;;;;;8.13;4.88;;;26.00;97.30;;;;;;5000724;28;20192;-82
2022/08/24 07:06:30;;;;;;;10.65;5.38;;;26.60;96.60;;;;;;4999584;28;20210;-82
2022/08/24 07:08:56;;;;;;;11.43;5.25;;;26.80;96.30;;;;;;4999643;28;20178;-81
2022/08/24 07:11:23;;;;;;;17.13;5.00;;;26.30;96.50;;;;;;4999392;28;20632;-84
2022/08/24 07:13:49;;;;;;;12.18;6.05;;;26.80;96.40;;;;;;5000223;28;20189;-82
2022/08/24 07:16:17;;;;;;;11.68;5.55;;;26.40;96.00;;;;;;4999873;28;20195;-80
2022/08/24 07:18:43;;;;;;;11.52;5.13;;;26.70;95.70;;;;;;4999891;28;20183;-82
2022/08/24 07:21:09;;;;;;;8.98;4.78;;;26.10;95.70;;;;;;4999865;28;20568;-83
2022/08/24 07:23:35;;;;;;;14.98;5.30;;;26.20;96.00;;;;;;4999971;28;20175;-84
2022/08/24 07:26:21;;;;;;;8.32;4.70;;;27.20;95.10;;;;;;4999798;28;20202;-82
2022/08/24 07:28:49;;;;;;;29.85;5.50;;;27.20;94.80;;;;;;5017565;28;20167;-82
2022/08/24 07:31:15;;;;;;;12.45;6.28;;;27.50;94.90;;;;;;4999936;28;20207;-82
2022/08/24 07:33:40;;;;;;;13.65;6.22;;;27.40;94.40;;;;;;4999441;28;20179;-82
2022/08/24 07:36:06;;;;;;;12.10;5.82;;;27.90;94.00;;;;;;4998378;28;20229;-82
2022/08/24 07:38:32;;;;;;;11.90;5.65;;;28.00;94.30;;;;;;4998646;28;20186;-84
2022/08/24 07:40:59;;;;;;;13.85;5.50;;;28.30;94.30;;;;;;4987966;28;20179;-83
2022/08/24 07:43:25;;;;;;;12.13;6.00;;;28.60;93.20;;;;;;4980064;28;20226;-83
2022/08/24 07:45:51;;;;;;;11.90;4.95;;;28.80;92.70;;;;;;4980353;28;20199;-81
2022/08/24 07:48:17;;;;;;;8.23;5.07;;;28.20;92.80;;;;;;4980042;28;20163;-82
2022/08/24 07:50:43;;;;;;;10.65;5.20;;;29.00;92.40;;;;;;4981093;28;20183;-82
2022/08/24 07:53:09;;;;;;;16.17;5.50;;;29.10;92.50;;;;;;4979906;28;20168;-81
2022/08/24 07:55:35;;;;;;;10.88;4.28;;;29.00;91.60;;;;;;4980057;28;20191;-83
2022/08/24 07:58:01;;;;;;;12.95;5.05;;;28.80;92.00;;;;;;4980652;28;20187;-82
2022/08/24 08:00:27;;;;;;;10.90;4.72;;;29.50;92.00;;;;;;4979968;28;20656;-82
2022/08/24 08:02:52;;;;;;;13.40;4.68;;;29.50;91.90;;;;;;4979910;28;20179;-81
2022/08/24 08:05:21;;;;;;;8.18;4.65;;;29.20;91.80;;;;;;4979837;28;20175;-83
2022/08/24 08:07:48;;;;;;;13.23;5.10;;;29.30;92.50;;;;;;4979411;28;20595;-81
2022/08/24 08:10:13;;;;;;;15.63;5.25;;;30.10;90.90;;;;;;4979519;28;20544;-83
2022/08/24 08:12:39;;;;;;;10.93;4.55;;;28.90;91.40;;;;;;4979047;28;20176;-81
2022/08/24 08:15:08;;;;;;;11.05;4.82;;;30.10;91.50;;;;;;4979060;28;20187;-81
2022/08/24 08:17:35;;;;;;;11.13;4.53;;;30.20;90.80;;;;;;4979739;28;20234;-83
2022/08/24 08:20:03;;;;;;;9.18;4.60;;;30.70;90.80;;;;;;4979182;28;20175;-83
2022/08/24 08:25:13;;;;;;;8.75;4.53;;;29.90;90.70;;;;;;4997305;28;20173;-81
2022/08/24 08:27:38;;;;;;;10.77;4.22;;;30.60;89.30;;;;;;4980060;28;20565;-82
2022/08/24 08:30:05;;;;;;;8.43;4.50;;;30.20;90.00;;;;;;4978369;28;20238;-82
2022/08/24 08:32:31;;;;;;;14.90;5.25;;;30.20;89.10;;;;;;4978576;28;20167;-82
2022/08/24 08:34:56;;;;;;;11.55;4.00;;;30.50;89.10;;;;;;4979587;28;20593;-82
2022/08/24 08:37:23;;;;;;;10.73;4.15;;;31.30;88.50;;;;;;4978386;28;20202;-84
2022/08/24 08:39:49;;;;;;;9.63;4.50;;;31.00;89.60;;;;;;4978243;28;20182;-82
2022/08/24 08:42:43;;;;;;;10.13;4.10;;;31.10;88.70;;;;;;4977797;28;20197;-83
2022/08/24 08:45:36;;;;;;;14.23;4.75;;;31.30;89.30;;;;;;4978936;28;20179;-83
2022/08/24 08:48:13;;;;;;;11.25;3.88;;;31.40;87.80;;;;;;4979147;28;20621;-82
2022/08/24 08:50:58;;;;;;;9.88;3.60;;;31.10;89.00;;;;;;4977990;28;20198;-84
2022/08/24 08:53:51;;;;;;;9.30;4.10;;;31.80;87.60;;;;;;4978150;28;20167;-83
2022/08/24 08:56:49;;;;;;;10.73;3.47;;;31.60;87.70;;;;;;4979005;28;20199;-82
2022/08/24 08:59:50;;;;;;;6.88;3.63;;;31.60;87.10;;;;;;4978523;28;20186;-83
2022/08/24 09:02:27;;;;;;;8.23;3.60;;;32.00;86.30;;;;;;4974877;28;20195;-81
2022/08/24 09:05:05;;;;;;;8.13;3.47;;;32.30;86.20;;;;;;4979502;28;20168;-80
2022/08/24 09:07:55;;;;;;;9.73;3.63;;;31.90;85.30;;;;;;4980452;28;20213;-82
2022/08/24 09:10:37;;;;;;;11.88;3.80;;;32.60;84.70;;;;;;4979292;28;20267;-80
2022/08/24 09:13:26;;;;;;;7.60;3.50;;;32.60;84.70;;;;;;4979193;28;20167;-80
2022/08/24 09:16:03;;;;;;;12.10;3.58;;;32.50;84.10;;;;;;4977940;28;20229;-80
2022/08/24 09:18:53;;;;;;;11.00;3.28;;;32.60;85.40;;;;;;4979348;28;20171;-82
2022/08/24 09:21:37;;;;;;;8.25;3.28;;;32.00;83.10;;;;;;4979110;28;20179;-79
2022/08/24 09:24:33;;;;;;;14.25;3.95;;;32.70;83.70;;;;;;4980027;28;20170;-81
2022/08/24 09:27:31;;;;;;;9.27;3.70;;;32.90;85.10;;;;;;4980132;28;20569;-80
2022/08/24 09:30:16;;;;;;;6.18;2.85;;;32.40;82.80;;;;;;4978757;28;20659;-80
2022/08/24 09:33:03;;;;;;;7.70;3.03;;;32.90;82.90;;;;;;4978219;28;20632;-81
2022/08/24 09:35:50;;;;;;;8.65;2.78;;;33.00;80.70;;;;;;4977823;28;20644;-80
2022/08/24 09:38:46;;;;;;;5.57;2.75;;;33.30;80.50;;;;;;4978037;28;20238;-80
2022/08/24 09:41:39;;;;;;;8.40;2.80;;;33.40;80.70;;;;;;4979345;28;20229;-80
2022/08/24 09:44:26;;;;;;;5.90;2.40;;;33.60;79.60;;;;;;4996464;28;20178;-81
2022/08/24 09:47:09;;;;;;;6.95;2.50;;;33.00;80.00;;;;;;4978892;28;20215;-81
2022/08/24 09:50:02;;;;;;;7.85;2.50;;;33.20;82.00;;;;;;4979965;28;20234;-83
2022/08/24 09:52:30;;;;;;;6.60;2.53;;;33.10;79.70;;;;;;4978225;28;20183;-82
2022/08/24 09:55:14;;;;;;;5.82;2.58;;;32.30;80.00;;;;;;4976861;28;20183;-82
2022/08/24 09:58:02;;;;;;;12.02;2.58;;;33.00;80.50;;;;;;4978058;28;20958;-82
2022/08/24 10:00:33;;;;;;;6.15;2.35;;;33.00;79.60;;;;;;4978359;28;20172;-80
2022/08/24 10:03:14;;;;;;;5.22;2.03;;;33.40;80.60;;;;;;4977298;28;20352;-81
2022/08/24 10:05:59;;;;;;;7.07;2.13;;;33.60;80.50;;;;;;4977969;28;20245;-81
2022/08/24 10:08:50;;;;;;;7.75;2.53;;;33.50;78.80;;;;;;4980473;28;20182;-81
2022/08/24 10:11:29;;;;;;;10.05;2.35;;;33.60;79.80;;;;;;4979754;28;20164;-82
2022/08/24 10:14:14;;;;;;;2.45;2.05;;;34.30;79.30;;;;;;4980868;28;20218;-79
2022/08/24 10:16:58;;;;;;;4.55;1.88;;;34.50;78.30;;;;;;4979484;28;20214;-81
2022/08/24 10:19:58;;;;;;;4.68;2.35;;;34.30;78.30;;;;;;4978833;28;20187;-82
2022/08/24 10:22:32;;;;;;;5.13;2.40;;;33.70;77.50;;;;;;4995124;28;20175;-81
2022/08/24 10:25:23;;;;;;;4.55;2.30;;;33.90;78.00;;;;;;4977363;28;20177;-81
2022/08/24 10:28:11;;;;;;;8.85;2.35;;;34.30;78.00;;;;;;4978458;28;20790;-82
2022/08/24 10:30:52;;;;;;;7.88;2.80;;;34.50;77.70;;;;;;4978346;28;20183;-82
2022/08/24 10:33:34;;;;;;;4.63;1.92;;;36.00;74.90;;;;;;4979166;28;20269;-83
2022/08/24 10:36:28;;;;;;;5.47;2.45;;;36.20;75.00;;;;;;4997012;28;20199;-80
2022/08/24 10:45:40;;;;;;;5.03;2.00;;;34.90;76.50;;;;;;4997660;28;20217;-81
2022/08/24 10:48:30;;;;;;;4.07;1.98;;;35.10;76.80;;;;;;4977053;28;20182;-81
2022/08/24 10:51:18;;;;;;;8.25;2.10;;;34.00;77.90;;;;;;4977316;28;20234;-81
2022/08/24 10:53:50;;;;;;;5.15;1.70;;;33.90;75.90;;;;;;4978225;28;20175;-80
2022/08/24 10:56:37;;;;;;;4.97;1.52;;;33.50;76.30;;;;;;4976907;28;20196;-81
2022/08/24 10:59:16;;;;;;;4.55;1.83;;;33.40;76.70;;;;;;4976808;28;20594;-80
2022/08/24 11:01:59;;;;;;;3.17;2.10;;;33.10;77.20;;;;;;4977936;28;20202;-81
2022/08/24 11:04:29;;;;;;;6.38;2.03;;;32.90;77.00;;;;;;4976971;28;20254;-80
2022/08/24 11:07:06;;;;;;;8.57;2.20;;;33.60;75.90;;;;;;4976258;28;20203;-81
2022/08/24 11:09:43;;;;;;;3.70;2.05;;;33.60;74.80;;;;;;4976604;28;20211;-80
2022/08/24 11:12:27;;;;;;;5.22;2.13;;;34.40;75.30;;;;;;4976868;28;20171;-80
2022/08/24 11:14:55;;;;;;;7.25;1.90;;;35.20;76.10;;;;;;4977550;28;20205;-81
2022/08/24 11:17:23;;;;;;;5.70;2.08;;;36.00;71.90;;;;;;4977486;28;20568;-81
2022/08/24 11:19:50;;;;;;;3.05;1.83;;;36.50;70.60;;;;;;4978083;28;20202;-80
2022/08/24 11:22:41;;;;;;;2.97;1.73;;;35.20;72.40;;;;;;4976950;28;20266;-82
2022/08/24 11:25:20;;;;;;;6.43;1.80;;;34.60;73.40;;;;;;4977650;28;20183;-80
2022/08/24 11:27:49;;;;;;;2.95;2.00;;;34.60;73.40;;;;;;4976460;28;20232;-82
2022/08/24 11:30:18;;;;;;;4.75;1.98;;;34.60;73.90;;;;;;4976027;28;20182;-82
2022/08/24 11:32:50;;;;;;;3.10;1.70;;;33.60;73.90;;;;;;4976168;28;20176;-81
2022/08/24 11:35:32;;;;;;;5.40;1.90;;;34.10;73.70;;;;;;4977844;28;20262;-83
2022/08/24 11:38:04;;;;;;;4.30;1.95;;;33.60;73.40;;;;;;4980028;28;20167;-82
2022/08/24 11:40:36;;;;;;;4.78;1.90;;;33.80;73.90;;;;;;4980620;28;20531;-82
2022/08/24 11:43:30;;;;;;;3.33;1.73;;;34.30;73.20;;;;;;4981156;28;20195;-82
2022/08/24 11:46:08;;;;;;;6.78;1.90;;;34.50;73.20;;;;;;4979853;28;20246;-81
2022/08/24 11:49:17;;;;;;;2.30;1.77;;;34.90;73.30;;;;;;4980808;28;20859;-82
2022/08/24 11:52:05;;;;;;;4.50;1.95;;;34.20;73.50;;;;;;4944756;28;20238;-81
2022/08/24 11:55:05;;;;;;;4.38;2.03;;;34.40;73.40;;;;;;4980009;28;20262;-81
2022/08/24 11:57:39;;;;;;;6.05;2.10;;;35.20;71.80;;;;;;4980897;28;20228;-80
2022/08/24 12:00:11;;;;;;;2.50;2.20;;;36.80;70.10;;;;;;4980912;28;20667;-81
2022/08/24 12:02:39;;;;;;;6.53;1.90;;;36.90;68.30;;;;;;4980490;28;20637;-81
2022/08/24 12:05:43;;;;;;;3.22;2.10;;;36.80;70.10;;;;;;4980575;28;20171;-80
2022/08/24 12:08:25;;;;;;;6.55;2.00;;;33.60;71.40;;;;;;4981192;28;20190;-80
2022/08/24 12:11:09;;;;;;;8.77;2.10;;;34.60;72.90;;;;;;4980397;28;20179;-81
2022/08/24 12:13:41;;;;;;;6.55;2.15;;;35.30;73.30;;;;;;4942115;28;1093441;-81
2022/08/24 12:16:18;;;;;;;2.33;1.92;;;35.60;72.40;;;;;;4980791;28;20606;-81
2022/08/24 12:18:46;;;;;;;5.50;1.95;;;34.80;72.10;;;;;;4983180;28;20183;-80
2022/08/24 12:21:16;;;;;;;6.13;1.85;;;34.60;71.20;;;;;;4982539;28;20666;-79
2022/08/24 12:23:47;;;;;;;7.30;3.35;;;34.50;72.60;;;;;;4982140;28;20179;-79
2022/08/24 12:26:27;;;;;;;5.05;2.03;;;34.90;71.50;;;;;;4982923;28;20199;-79
2022/08/24 12:28:58;;;;;;;3.95;1.90;;;34.50;71.00;;;;;;4982214;28;20175;-78
2022/08/24 12:31:30;;;;;;;5.97;1.98;;;34.00;72.10;;;;;;4981454;28;20269;-79
2022/08/24 12:34:00;;;;;;;5.90;1.95;;;34.40;71.20;;;;;;4982514;28;20167;-79
2022/08/24 12:36:45;;;;;;;6.32;2.10;;;33.30;73.70;;;;;;4982770;28;20199;-79
2022/08/24 12:39:20;;;;;;;7.63;1.90;;;33.60;72.30;;;;;;4981553;28;20175;-81
2022/08/24 12:42:04;;;;;;;6.18;2.00;;;33.10;72.70;;;;;;4981647;28;20171;-80
2022/08/24 12:44:52;;;;;;;3.05;1.85;;;32.80;72.60;;;;;;4980606;28;20266;-80
2022/08/24 12:47:34;;;;;;;11.02;1.80;;;33.10;71.60;;;;;;4978208;28;20238;-80
2022/08/24 12:50:18;;;;;;;1.90;1.80;;;33.60;71.60;;;;;;4979251;28;20201;-80
2022/08/24 12:53:12;;;;;;;3.85;1.80;;;33.80;70.70;;;;;;4979888;28;20182;-80
2022/08/24 12:55:50;;;;;;;5.25;1.80;;;33.50;71.90;;;;;;4979705;28;20214;-80
2022/08/24 12:59:04;;;;;;;4.07;1.80;;;33.30;72.40;;;;;;4980716;28;20183;-79
2022/08/24 13:01:34;;;;;;;3.15;1.92;;;33.30;73.70;;;;;;4902824;29;20573;-80
2022/08/24 13:04:18;;;;;;;5.75;1.95;;;33.00;72.20;;;;;;4973491;28;20179;-80
2022/08/24 13:06:58;;;;;;;3.60;1.55;;;32.40;72.30;;;;;;4980356;28;20699;-80
2022/08/24 13:09:37;;;;;;;2.25;1.33;;;33.00;72.40;;;;;;4980231;28;20258;-80
2022/08/24 13:12:37;;;;;;;2.42;1.40;;;33.20;71.70;;;;;;4979853;28;20262;-80
2022/08/24 13:15:25;;;;;;;5.10;1.73;;;32.80;71.50;;;;;;4981058;28;20198;-80
2022/08/24 13:18:08;;;;;;;3.85;1.75;;;32.50;70.20;;;;;;4982578;28;20649;-81
2022/08/24 13:20:37;;;;;;;2.40;1.70;;;32.30;70.70;;;;;;4982300;28;20602;-81
2022/08/24 13:23:12;;;;;;;9.00;1.80;;;32.40;70.80;;;;;;4980928;28;20183;-81